Time;durP1;ratioP1;P1;durP2;ratioP2;P2;SDS_P1;SDS_P2;PMS_P1;PMS_P2;Temp;Humidity;BMP_temperature;BMP_pressure;BME280_temperature;BME280_humidity;BME280_pressure;Samples;Min_cycle;Max_cycle;Signal;HPM_P1;HPM_P2
2022/05/08 00:00:25;;;;;;;4.70;3.80;;;;;;;;;;4979261;28;20439;-22
2022/05/08 00:02:54;;;;;;;4.03;3.58;;;;;;;;;;4978810;28;20058;-24
2022/05/08 00:05:20;;;;;;;3.60;3.30;;;;;;;;;;4979096;28;20042;-25
2022/05/08 00:07:46;;;;;;;4.18;3.88;;;;;;;;;;4979125;28;20041;-23
2022/05/08 00:10:12;;;;;;;5.05;4.07;;;;;;;;;;4978721;28;20106;-23
2022/05/08 00:12:39;;;;;;;4.10;3.78;;;;;;;;;;4978663;28;20031;-26
2022/05/08 00:15:05;;;;;;;4.70;3.60;;;;;;;;;;4979263;28;20031;-22
2022/05/08 00:17:37;;;;;;;3.78;3.22;;;;;;;;;;4978976;28;20393;-21
2022/05/08 00:20:04;;;;;;;3.70;3.40;;;;;;;;;;4978624;28;20341;-21
2022/05/08 00:22:30;;;;;;;3.90;3.60;;;;;;;;;;4978514;28;20058;-22
2022/05/08 00:24:56;;;;;;;5.32;4.38;;;;;;;;;;4978539;28;20097;-25
2022/05/08 00:27:23;;;;;;;4.55;3.72;;;;;;;;;;4978751;28;20039;-24
2022/05/08 00:29:49;;;;;;;5.15;3.50;;;;;;;;;;4978676;28;20019;-22
2022/05/08 00:32:15;;;;;;;4.47;3.95;;;;;;;;;;4978679;28;20039;-22
2022/05/08 00:34:41;;;;;;;3.90;3.50;;;;;;;;;;4978291;28;20038;-22
2022/05/08 00:37:07;;;;;;;4.65;3.42;;;;;;;;;;4978319;28;20058;-22
2022/05/08 00:39:33;;;;;;;5.53;3.80;;;;;;;;;;4978254;28;20441;-21
2022/05/08 00:42:00;;;;;;;4.18;3.78;;;;;;;;;;4978654;28;20035;-25
2022/05/08 00:44:26;;;;;;;6.50;4.03;;;;;;;;;;4978182;28;20027;-22
2022/05/08 00:46:52;;;;;;;12.82;3.83;;;;;;;;;;4978398;28;20037;-22
2022/05/08 00:49:18;;;;;;;4.25;3.90;;;;;;;;;;4978101;28;20389;-24
2022/05/08 00:51:47;;;;;;;4.50;4.10;;;;;;;;;;4977892;28;20034;-22
2022/05/08 00:54:14;;;;;;;4.03;3.33;;;;;;;;;;4978284;28;20026;-22
2022/05/08 00:56:41;;;;;;;4.43;4.07;;;;;;;;;;4978502;28;20023;-23
2022/05/08 00:59:07;;;;;;;3.40;3.10;;;;;;;;;;4977976;28;20031;-22
2022/05/08 01:01:34;;;;;;;4.35;3.20;;;;;;;;;;4977917;28;20033;-23
2022/05/08 01:04:00;;;;;;;5.32;4.05;;;;;;;;;;4960552;28;20043;-23
2022/05/08 01:06:27;;;;;;;6.60;3.45;;;;;;;;;;4978034;28;20039;-22
2022/05/08 01:08:54;;;;;;;6.28;3.78;;;;;;;;;;4977267;28;20114;-22
2022/05/08 01:11:21;;;;;;;5.05;4.55;;;;;;;;;;4978142;28;20463;-22
2022/05/08 01:13:47;;;;;;;3.90;3.60;;;;;;;;;;4977874;28;20034;-22
2022/05/08 01:16:18;;;;;;;3.80;3.50;;;;;;;;;;4977602;28;20031;-22
2022/05/08 01:18:45;;;;;;;4.60;3.65;;;;;;;;;;4977594;28;20452;-27
2022/05/08 01:21:13;;;;;;;4.35;3.40;;;;;;;;;;4977779;28;20031;-23
2022/05/08 01:23:40;;;;;;;3.00;2.70;;;;;;;;;;4977399;28;20038;-25
2022/05/08 01:26:07;;;;;;;3.83;3.40;;;;;;;;;;4977366;28;20058;-22
2022/05/08 01:28:33;;;;;;;3.58;3.25;;;;;;;;;;4977395;28;20341;-23
2022/05/08 01:30:59;;;;;;;4.00;3.50;;;;;;;;;;4977498;28;20097;-22
2022/05/08 01:33:26;;;;;;;3.30;3.00;;;;;;;;;;4977212;28;20069;-21
2022/05/08 01:35:52;;;;;;;3.95;3.65;;;;;;;;;;4960233;28;20023;-22
2022/05/08 01:38:19;;;;;;;5.55;3.58;;;;;;;;;;4977994;28;20157;-23
2022/05/08 01:40:46;;;;;;;4.63;3.65;;;;;;;;;;4977411;28;20038;-22
2022/05/08 01:43:12;;;;;;;4.43;3.28;;;;;;;;;;4977039;28;20484;-24
2022/05/08 01:45:39;;;;;;;6.00;3.53;;;;;;;;;;4977109;28;20368;-22
2022/05/08 01:48:25;;;;;;;3.70;3.40;;;;;;;;;;4977282;28;20035;-23
2022/05/08 01:50:56;;;;;;;3.63;3.42;;;;;;;;;;4977170;28;20035;-23
2022/05/08 01:53:23;;;;;;;4.60;3.93;;;;;;;;;;4976783;28;20023;-24
2022/05/08 01:55:52;;;;;;;3.72;3.30;;;;;;;;;;4976891;28;20388;-26
2022/05/08 01:58:18;;;;;;;3.50;3.20;;;;;;;;;;4977071;28;20046;-22
2022/05/08 02:00:44;;;;;;;3.25;2.95;;;;;;;;;;4977077;28;20133;-25
2022/05/08 02:03:11;;;;;;;4.10;3.78;;;;;;;;;;4976666;28;20113;-25
2022/05/08 02:05:39;;;;;;;3.90;3.60;;;;;;;;;;4977012;28;20025;-22
2022/05/08 02:08:05;;;;;;;5.18;4.22;;;;;;;;;;4976638;28;20107;-21
2022/05/08 02:10:31;;;;;;;3.50;3.20;;;;;;;;;;4976545;28;20035;-22
2022/05/08 02:12:57;;;;;;;3.80;3.45;;;;;;;;;;4976495;28;20038;-21
2022/05/08 02:15:29;;;;;;;6.55;3.45;;;;;;;;;;4976777;28;20101;-23
2022/05/08 02:17:55;;;;;;;;;;;;;;;;;;4977227;28;20511;-22
2022/05/08 02:20:21;;;;;;;5.53;3.28;;;;;;;;;;4976687;28;19937;-22
2022/05/08 02:22:47;;;;;;;3.40;3.08;;;;;;;;;;4976291;28;20472;-21
2022/05/08 02:25:13;;;;;;;4.03;3.40;;;;;;;;;;4976369;28;20460;-22
2022/05/08 02:27:40;;;;;;;3.85;3.40;;;;;;;;;;4976850;28;20030;-21
2022/05/08 02:30:11;;;;;;;5.80;3.35;;;;;;;;;;4976468;28;20472;-22
2022/05/08 02:32:37;;;;;;;3.37;3.03;;;;;;;;;;4976231;28;20031;-22
2022/05/08 02:35:04;;;;;;;5.28;2.92;;;;;;;;;;4976188;28;20042;-22
2022/05/08 02:37:30;;;;;;;3.45;3.15;;;;;;;;;;4976124;28;20055;-23
2022/05/08 02:39:56;;;;;;;3.63;3.33;;;;;;;;;;4976123;28;20448;-25
2022/05/08 02:42:23;;;;;;;4.40;3.38;;;;;;;;;;4959232;28;20101;-22
2022/05/08 02:44:49;;;;;;;3.00;2.80;;;;;;;;;;4976057;28;20041;-21
2022/05/08 02:47:15;;;;;;;4.10;3.15;;;;;;;;;;4976289;28;20029;-21
2022/05/08 02:49:41;;;;;;;4.30;3.28;;;;;;;;;;4976291;28;20326;-22
2022/05/08 02:52:07;;;;;;;3.30;3.00;;;;;;;;;;4958795;28;20034;-24
2022/05/08 02:54:33;;;;;;;3.85;3.45;;;;;;;;;;4975893;28;20512;-22
2022/05/08 02:59:44;;;;;;;2.97;2.78;;;;;;;;;;4975937;28;20042;-22
2022/05/08 03:02:10;;;;;;;5.15;3.55;;;;;;;;;;4975858;28;20114;-22
2022/05/08 03:04:36;;;;;;;3.42;2.75;;;;;;;;;;4955552;29;20496;-23
2022/05/08 03:07:03;;;;;;;4.03;3.70;;;;;;;;;;4956573;29;20078;-21
2022/05/08 03:09:29;;;;;;;4.05;3.08;;;;;;;;;;4955605;29;20054;-21
2022/05/08 03:11:55;;;;;;;4.50;3.38;;;;;;;;;;4956625;28;20108;-21
2022/05/08 03:14:21;;;;;;;3.88;3.17;;;;;;;;;;4956513;28;20027;-24
2022/05/08 03:16:48;;;;;;;3.55;2.90;;;;;;;;;;4956715;28;20049;-21
2022/05/08 03:19:14;;;;;;;3.85;3.03;;;;;;;;;;4956468;28;20512;-25
2022/05/08 03:21:41;;;;;;;2.83;2.63;;;;;;;;;;4956670;28;20380;-27
2022/05/08 03:24:07;;;;;;;3.50;3.20;;;;;;;;;;4956364;28;20027;-22
2022/05/08 03:26:34;;;;;;;3.25;2.95;;;;;;;;;;4956668;28;20110;-22
2022/05/08 03:29:00;;;;;;;4.68;4.22;;;;;;;;;;4956380;28;20511;-25
2022/05/08 03:31:26;;;;;;;3.53;2.60;;;;;;;;;;4957407;28;20046;-21
2022/05/08 03:33:53;;;;;;;2.70;2.50;;;;;;;;;;4960175;28;20102;-22
2022/05/08 03:36:19;;;;;;;3.00;2.40;;;;;;;;;;4960100;28;20037;-22
2022/05/08 03:38:45;;;;;;;4.60;3.15;;;;;;;;;;4960586;28;20344;-22
2022/05/08 03:41:15;;;;;;;4.72;3.33;;;;;;;;;;4960278;28;20036;-21
2022/05/08 03:43:43;;;;;;;3.45;3.10;;;;;;;;;;4960001;28;20409;-22
2022/05/08 03:46:09;;;;;;;3.97;2.67;;;;;;;;;;4958983;29;20425;-24
2022/05/08 03:48:36;;;;;;;2.92;2.55;;;;;;;;;;4959823;29;20512;-21
2022/05/08 03:51:03;;;;;;;3.00;2.70;;;;;;;;;;4960049;28;20086;-21
2022/05/08 03:53:29;;;;;;;4.32;2.75;;;;;;;;;;4959747;28;20070;-22
2022/05/08 03:55:55;;;;;;;3.08;2.72;;;;;;;;;;4959787;28;20105;-24
2022/05/08 03:58:21;;;;;;;2.55;2.40;;;;;;;;;;4960205;28;20027;-21
2022/05/08 04:00:47;;;;;;;2.65;2.45;;;;;;;;;;4958745;29;20046;-22
2022/05/08 04:03:13;;;;;;;3.25;3.00;;;;;;;;;;4962048;28;20166;-24
2022/05/08 04:05:40;;;;;;;3.63;2.90;;;;;;;;;;4979206;28;20027;-22
2022/05/08 04:08:06;;;;;;;3.70;3.17;;;;;;;;;;4978805;28;20039;-21
2022/05/08 04:10:33;;;;;;;2.97;2.78;;;;;;;;;;4979257;28;20457;-24
2022/05/08 04:12:59;;;;;;;2.92;2.72;;;;;;;;;;4978606;28;20057;-21
2022/05/08 04:18:10;;;;;;;3.55;3.10;;;;;;;;;;4964506;28;20550;-21
2022/05/08 04:20:37;;;;;;;3.13;2.80;;;;;;;;;;4978876;28;20039;-21
2022/05/08 04:25:52;;;;;;;3.90;3.22;;;;;;;;;;4978599;28;20069;-21
2022/05/08 04:28:21;;;;;;;2.92;2.55;;;;;;;;;;4979055;28;20041;-21
2022/05/08 04:30:48;;;;;;;3.85;3.55;;;;;;;;;;4978567;28;20104;-26
2022/05/08 04:33:14;;;;;;;2.95;2.75;;;;;;;;;;4978254;28;20035;-23
2022/05/08 04:35:40;;;;;;;2.92;2.70;;;;;;;;;;4978358;28;20029;-24
2022/05/08 04:38:06;;;;;;;3.05;2.80;;;;;;;;;;4978317;28;20078;-22
2022/05/08 04:40:32;;;;;;;2.67;2.47;;;;;;;;;;4978804;28;20046;-21
2022/05/08 04:42:59;;;;;;;3.35;2.60;;;;;;;;;;4977015;28;20372;-22
2022/05/08 04:45:25;;;;;;;2.55;2.35;;;;;;;;;;4978131;28;20031;-23
2022/05/08 04:47:51;;;;;;;3.70;3.40;;;;;;;;;;4978160;28;20026;-26
2022/05/08 04:50:17;;;;;;;2.95;2.72;;;;;;;;;;4978050;28;20031;-22
2022/05/08 04:52:43;;;;;;;5.97;2.90;;;;;;;;;;4978529;28;20037;-21
2022/05/08 04:55:10;;;;;;;2.92;2.72;;;;;;;;;;4978303;28;20034;-21
2022/05/08 04:57:36;;;;;;;3.60;2.85;;;;;;;;;;4977982;28;20031;-22
2022/05/08 05:00:04;;;;;;;3.40;3.10;;;;;;;;;;4977971;28;20023;-21
2022/05/08 05:02:30;;;;;;;5.65;3.03;;;;;;;;;;4978211;28;20066;-21
2022/05/08 05:04:57;;;;;;;3.67;3.03;;;;;;;;;;4977741;28;20109;-21
2022/05/08 05:07:24;;;;;;;4.50;2.40;;;;;;;;;;4977754;28;20114;-21
2022/05/08 05:09:50;;;;;;;3.30;2.90;;;;;;;;;;4978016;28;20435;-21
2022/05/08 05:12:17;;;;;;;3.05;2.55;;;;;;;;;;4977881;28;20459;-21
2022/05/08 05:14:43;;;;;;;2.95;2.75;;;;;;;;;;4978198;28;20031;-22
2022/05/08 05:17:09;;;;;;;3.08;2.88;;;;;;;;;;4977487;28;20034;-22
2022/05/08 05:19:35;;;;;;;2.80;2.60;;;;;;;;;;4977873;28;20034;-25
2022/05/08 05:22:01;;;;;;;2.65;2.40;;;;;;;;;;4977462;28;20031;-21
2022/05/08 05:24:30;;;;;;;3.05;2.85;;;;;;;;;;4977403;28;20031;-24
2022/05/08 05:26:56;;;;;;;2.90;2.65;;;;;;;;;;4977394;28;20106;-22
2022/05/08 05:29:22;;;;;;;2.95;2.75;;;;;;;;;;4977649;28;20027;-21
2022/05/08 05:31:48;;;;;;;3.13;2.92;;;;;;;;;;4977444;28;20031;-23
2022/05/08 05:34:14;;;;;;;3.28;2.60;;;;;;;;;;4977525;28;20098;-20
2022/05/08 05:36:40;;;;;;;2.60;2.40;;;;;;;;;;4977811;28;20062;-21
2022/05/08 05:39:07;;;;;;;2.75;2.55;;;;;;;;;;4977191;28;20089;-24
2022/05/08 05:41:33;;;;;;;2.78;2.53;;;;;;;;;;4977103;28;20042;-22
2022/05/08 05:43:59;;;;;;;3.97;3.30;;;;;;;;;;4977061;28;20039;-21
2022/05/08 05:49:10;;;;;;;2.63;2.42;;;;;;;;;;4977314;28;20106;-21
2022/05/08 05:51:36;;;;;;;2.97;2.78;;;;;;;;;;4977143;28;20142;-24
2022/05/08 05:54:02;;;;;;;2.90;2.70;;;;;;;;;;4976568;28;20105;-21
2022/05/08 05:56:29;;;;;;;2.83;2.58;;;;;;;;;;4976889;28;20027;-21
2022/05/08 05:58:55;;;;;;;3.20;2.88;;;;;;;;;;4977900;28;20337;-21
2022/05/08 06:01:21;;;;;;;2.83;2.53;;;;;;;;;;4977025;28;20034;-24
2022/05/08 06:03:47;;;;;;;2.55;2.35;;;;;;;;;;4976461;28;20465;-24
2022/05/08 06:06:14;;;;;;;3.03;2.83;;;;;;;;;;4976959;28;20118;-21
2022/05/08 06:08:41;;;;;;;2.83;2.63;;;;;;;;;;4976575;28;20522;-21
2022/05/08 06:11:07;;;;;;;2.88;2.50;;;;;;;;;;4959551;28;20122;-24
2022/05/08 06:13:33;;;;;;;2.67;2.47;;;;;;;;;;4976770;28;20411;-21
2022/05/08 06:15:59;;;;;;;3.10;2.90;;;;;;;;;;4976531;28;20030;-22
2022/05/08 06:18:25;;;;;;;2.72;2.53;;;;;;;;;;4976717;28;20363;-22
2022/05/08 06:20:52;;;;;;;2.45;2.30;;;;;;;;;;4976430;28;20109;-22
2022/05/08 06:23:19;;;;;;;2.92;2.70;;;;;;;;;;4976356;28;20049;-22
2022/05/08 06:25:45;;;;;;;2.50;2.30;;;;;;;;;;4976373;28;20085;-21
2022/05/08 06:28:14;;;;;;;2.40;2.20;;;;;;;;;;4976325;28;20046;-21
2022/05/08 06:30:40;;;;;;;2.95;2.78;;;;;;;;;;4976458;28;20031;-23
2022/05/08 06:33:06;;;;;;;2.95;2.75;;;;;;;;;;4976186;28;20031;-22
2022/05/08 06:35:32;;;;;;;2.90;2.60;;;;;;;;;;4976213;28;20134;-22
2022/05/08 06:37:58;;;;;;;2.25;2.15;;;;;;;;;;4976207;28;20019;-22
2022/05/08 06:40:25;;;;;;;2.58;2.30;;;;;;;;;;4976430;28;20053;-21
2022/05/08 06:42:51;;;;;;;3.50;3.10;;;;;;;;;;4976056;28;20128;-22
2022/05/08 06:45:23;;;;;;;2.90;2.60;;;;;;;;;;4976388;28;20113;-24
2022/05/08 06:47:50;;;;;;;3.08;2.78;;;;;;;;;;4976358;28;20425;-21
2022/05/08 06:50:17;;;;;;;2.38;2.28;;;;;;;;;;4976488;28;20105;-22
2022/05/08 06:52:44;;;;;;;2.40;2.30;;;;;;;;;;4976108;28;20029;-22
2022/05/08 06:55:10;;;;;;;2.75;2.55;;;;;;;;;;4976517;28;20118;-22
2022/05/08 06:57:36;;;;;;;2.63;2.45;;;;;;;;;;4975949;28;20027;-22
2022/05/08 07:02:48;;;;;;;2.70;2.50;;;;;;;;;;4976265;28;20368;-23
2022/05/08 07:05:14;;;;;;;3.40;2.92;;;;;;;;;;4975664;28;20089;-21
2022/05/08 07:07:40;;;;;;;2.63;2.42;;;;;;;;;;4975504;28;20027;-22
2022/05/08 07:10:06;;;;;;;3.08;2.60;;;;;;;;;;4975838;28;20030;-22
2022/05/08 07:12:32;;;;;;;2.78;2.40;;;;;;;;;;4975857;28;20468;-23
2022/05/08 07:14:59;;;;;;;2.65;2.45;;;;;;;;;;4975805;28;20035;-21
2022/05/08 07:17:25;;;;;;;3.22;2.92;;;;;;;;;;4958706;28;20031;-21
2022/05/08 07:19:51;;;;;;;2.72;2.33;;;;;;;;;;4975970;28;20110;-23
2022/05/08 07:22:17;;;;;;;3.17;2.88;;;;;;;;;;4976057;28;20026;-24
2022/05/08 07:24:44;;;;;;;4.78;2.40;;;;;;;;;;4958648;28;20074;-21
2022/05/08 07:27:11;;;;;;;3.33;2.70;;;;;;;;;;4975900;28;20364;-21
2022/05/08 07:29:43;;;;;;;3.10;2.80;;;;;;;;;;4975911;28;20033;-24
2022/05/08 07:32:10;;;;;;;2.63;2.42;;;;;;;;;;4975747;28;20046;-22
2022/05/08 07:37:21;;;;;;;3.08;2.40;;;;;;;;;;4975894;28;20086;-22
2022/05/08 07:39:47;;;;;;;2.85;2.63;;;;;;;;;;4975811;28;20035;-26
2022/05/08 07:42:14;;;;;;;2.83;2.53;;;;;;;;;;4975403;28;20066;-21
2022/05/08 07:44:40;;;;;;;2.67;2.47;;;;;;;;;;4975487;28;20038;-22
2022/05/08 07:47:06;;;;;;;3.28;2.47;;;;;;;;;;4975787;28;20027;-22
2022/05/08 07:49:32;;;;;;;2.60;2.40;;;;;;;;;;4958492;28;20041;-22
2022/05/08 07:51:58;;;;;;;2.20;2.10;;;;;;;;;;4975572;28;20038;-22
2022/05/08 07:54:25;;;;;;;2.88;2.67;;;;;;;;;;4975454;28;20112;-22
2022/05/08 07:56:52;;;;;;;3.03;2.83;;;;;;;;;;4975683;28;20026;-22
2022/05/08 07:59:18;;;;;;;2.67;2.47;;;;;;;;;;4975389;28;20038;-22
2022/05/08 08:01:44;;;;;;;3.08;2.88;;;;;;;;;;4975265;28;20027;-26
2022/05/08 08:04:11;;;;;;;2.60;2.40;;;;;;;;;;4958140;28;20499;-21
2022/05/08 08:06:37;;;;;;;3.08;2.70;;;;;;;;;;4975597;28;20082;-23
2022/05/08 08:09:04;;;;;;;2.67;2.47;;;;;;;;;;4975307;28;20031;-22
2022/05/08 08:11:31;;;;;;;2.78;2.58;;;;;;;;;;4975454;28;20456;-22
2022/05/08 08:13:57;;;;;;;2.35;2.25;;;;;;;;;;4975205;28;20055;-23
2022/05/08 08:16:24;;;;;;;2.42;2.30;;;;;;;;;;4975215;28;20037;-21
2022/05/08 08:18:54;;;;;;;2.67;2.47;;;;;;;;;;4978295;28;20031;-21
2022/05/08 08:21:20;;;;;;;2.47;2.35;;;;;;;;;;4978886;28;20034;-24
2022/05/08 08:23:46;;;;;;;2.95;2.75;;;;;;;;;;4979066;28;20034;-21
2022/05/08 08:26:13;;;;;;;2.85;2.65;;;;;;;;;;4979092;28;20089;-21
2022/05/08 08:28:40;;;;;;;3.13;2.85;;;;;;;;;;4979539;28;20054;-21
2022/05/08 08:31:07;;;;;;;2.60;2.40;;;;;;;;;;4978320;28;20038;-21
2022/05/08 08:33:33;;;;;;;3.47;3.03;;;;;;;;;;4978585;28;20057;-21
2022/05/08 08:35:59;;;;;;;2.80;2.58;;;;;;;;;;4978636;28;20033;-24
2022/05/08 08:38:27;;;;;;;3.72;2.67;;;;;;;;;;4978394;28;20023;-24
2022/05/08 08:40:54;;;;;;;2.65;2.45;;;;;;;;;;4978822;28;20084;-21
2022/05/08 08:43:20;;;;;;;2.88;2.60;;;;;;;;;;4978226;28;20027;-21
2022/05/08 08:48:32;;;;;;;2.67;2.53;;;;;;;;;;4978448;28;20199;-22
2022/05/08 08:51:00;;;;;;;3.05;2.85;;;;;;;;;;4978317;28;20073;-21
2022/05/08 08:53:27;;;;;;;2.53;2.33;;;;;;;;;;4961018;28;20031;-22
2022/05/08 08:55:53;;;;;;;3.83;3.00;;;;;;;;;;4978029;28;20054;-21
2022/05/08 08:58:21;;;;;;;2.25;2.15;;;;;;;;;;4977930;28;20034;-21
2022/05/08 09:00:47;;;;;;;2.60;2.40;;;;;;;;;;4978213;28;20042;-21
2022/05/08 09:03:25;;;;;;;2.63;2.17;;;;;;;;;;4977648;28;20037;-21
2022/05/08 09:05:51;;;;;;;2.70;2.42;;;;;;;;;;4977836;28;20337;-26
2022/05/08 09:08:31;;;;;;;2.65;2.45;;;;;;;;;;4978327;28;20026;-21
2022/05/08 09:10:58;;;;;;;2.85;2.60;;;;;;;;;;4977946;28;20356;-20
2022/05/08 09:13:27;;;;;;;2.80;2.60;;;;;;;;;;4977644;28;20111;-22
2022/05/08 09:16:07;;;;;;;2.35;2.15;;;;;;;;;;4977656;28;20042;-21
2022/05/08 09:18:45;;;;;;;2.60;2.40;;;;;;;;;;4978160;28;20054;-22
2022/05/08 09:24:09;;;;;;;2.60;2.50;;;;;;;;;;4977784;28;20543;-22
2022/05/08 09:26:36;;;;;;;3.75;2.80;;;;;;;;;;4977413;28;20035;-21
2022/05/08 09:29:03;;;;;;;2.85;2.65;;;;;;;;;;4977054;28;20049;-21
2022/05/08 09:31:40;;;;;;;2.33;2.22;;;;;;;;;;4977226;28;20035;-21
2022/05/08 09:34:07;;;;;;;3.83;2.53;;;;;;;;;;4977244;28;20094;-24
2022/05/08 09:36:33;;;;;;;2.50;2.30;;;;;;;;;;4977818;28;20033;-21
2022/05/08 09:39:00;;;;;;;3.17;2.88;;;;;;;;;;4977242;28;20042;-23
2022/05/08 09:41:30;;;;;;;2.90;2.70;;;;;;;;;;4977184;28;20035;-22
2022/05/08 09:44:08;;;;;;;2.90;2.70;;;;;;;;;;4977350;28;20451;-21
2022/05/08 09:46:38;;;;;;;2.80;2.60;;;;;;;;;;4977389;28;20117;-24
2022/05/08 09:49:06;;;;;;;3.17;2.97;;;;;;;;;;4977280;28;20371;-24
2022/05/08 09:51:34;;;;;;;3.30;3.00;;;;;;;;;;4977100;28;20086;-21
2022/05/08 09:54:01;;;;;;;2.92;2.70;;;;;;;;;;4977118;28;20033;-22
2022/05/08 09:56:28;;;;;;;2.58;2.38;;;;;;;;;;4976843;28;20031;-21
2022/05/08 09:58:55;;;;;;;2.95;2.75;;;;;;;;;;4976835;28;20026;-21
2022/05/08 10:01:23;;;;;;;2.95;2.75;;;;;;;;;;4977347;28;20031;-21
2022/05/08 10:03:52;;;;;;;2.80;2.45;;;;;;;;;;4976425;28;20051;-22
2022/05/08 10:06:19;;;;;;;2.88;2.67;;;;;;;;;;4976684;28;20035;-22
2022/05/08 10:08:45;;;;;;;2.55;2.40;;;;;;;;;;4976931;28;20089;-23
2022/05/08 10:14:03;;;;;;;3.50;2.50;;;;;;;;;;4962590;28;20475;-22
2022/05/08 10:16:48;;;;;;;3.35;3.05;;;;;;;;;;4976792;28;20034;-22
2022/05/08 10:19:17;;;;;;;2.78;2.58;;;;;;;;;;4959438;28;20035;-21
2022/05/08 10:22:05;;;;;;;2.83;2.63;;;;;;;;;;4976989;28;20062;-21
2022/05/08 10:24:38;;;;;;;2.80;2.60;;;;;;;;;;4976400;28;20037;-26
2022/05/08 10:27:16;;;;;;;2.50;2.40;;;;;;;;;;4976904;28;20031;-24
2022/05/08 10:29:43;;;;;;;2.25;2.10;;;;;;;;;;4976567;28;20026;-27
2022/05/08 10:32:10;;;;;;;2.75;2.55;;;;;;;;;;4976412;28;20035;-22
2022/05/08 10:34:39;;;;;;;2.70;2.50;;;;;;;;;;4976275;28;20372;-21
2022/05/08 10:37:13;;;;;;;2.78;2.58;;;;;;;;;;4976418;28;20518;-22
2022/05/08 10:39:42;;;;;;;3.25;2.83;;;;;;;;;;4976466;28;20066;-21
2022/05/08 10:42:45;;;;;;;2.88;2.67;;;;;;;;;;4975688;28;20057;-22
2022/05/08 10:45:29;;;;;;;2.72;2.53;;;;;;;;;;4963580;28;20475;-22
2022/05/08 10:47:56;;;;;;;2.53;2.33;;;;;;;;;;4976026;28;20038;-23
2022/05/08 10:50:22;;;;;;;3.17;2.97;;;;;;;;;;4975972;28;20057;-23
2022/05/08 10:52:49;;;;;;;3.13;2.85;;;;;;;;;;4976079;28;20375;-22
2022/05/08 10:55:16;;;;;;;3.20;2.90;;;;;;;;;;4976222;28;20045;-21
2022/05/08 10:57:43;;;;;;;2.55;2.42;;;;;;;;;;4975924;28;20042;-21
2022/05/08 11:00:11;;;;;;;2.83;2.47;;;;;;;;;;4975893;28;20058;-21
2022/05/08 11:02:42;;;;;;;2.90;2.70;;;;;;;;;;4975978;28;20058;-26
2022/05/08 11:05:08;;;;;;;3.15;2.50;;;;;;;;;;4975621;28;20042;-21
2022/05/08 11:07:35;;;;;;;2.42;2.30;;;;;;;;;;4958828;28;20023;-22
2022/05/08 11:10:01;;;;;;;2.90;2.70;;;;;;;;;;4975764;28;20373;-22
2022/05/08 11:12:28;;;;;;;2.97;2.78;;;;;;;;;;4976277;28;20487;-25
2022/05/08 11:15:07;;;;;;;2.80;2.60;;;;;;;;;;4975709;28;20034;-21
2022/05/08 11:17:33;;;;;;;2.60;2.40;;;;;;;;;;4975730;28;20037;-22
2022/05/08 11:19:59;;;;;;;3.25;2.78;;;;;;;;;;4975730;28;20089;-22
2022/05/08 11:22:26;;;;;;;2.50;2.30;;;;;;;;;;4975686;28;20062;-22
2022/05/08 11:24:52;;;;;;;2.92;2.75;;;;;;;;;;4975646;28;20026;-22
2022/05/08 11:27:18;;;;;;;3.10;2.90;;;;;;;;;;4975900;28;20027;-21
2022/05/08 11:29:51;;;;;;;2.40;2.25;;;;;;;;;;4975928;28;20027;-24
2022/05/08 11:38:03;;;;;;;2.72;2.50;;;;;;;;;;4975870;28;20049;-21
2022/05/08 11:40:30;;;;;;;3.22;3.03;;;;;;;;;;4975820;28;20038;-23
2022/05/08 11:42:56;;;;;;;3.08;2.88;;;;;;;;;;4975443;28;20106;-22
2022/05/08 11:45:22;;;;;;;2.80;2.60;;;;;;;;;;4976044;28;20023;-23
2022/05/08 11:47:53;;;;;;;3.03;2.85;;;;;;;;;;4975514;28;20257;-22
2022/05/08 11:50:20;;;;;;;2.60;2.35;;;;;;;;;;4975470;28;20038;-23
2022/05/08 11:52:46;;;;;;;2.95;2.75;;;;;;;;;;4977009;28;20372;-21
2022/05/08 11:55:13;;;;;;;3.67;2.80;;;;;;;;;;4979134;28;20034;-26
2022/05/08 11:57:43;;;;;;;3.25;3.05;;;;;;;;;;4979349;28;20049;-25
2022/05/08 12:00:11;;;;;;;3.00;2.80;;;;;;;;;;4979052;28;20035;-21
2022/05/08 12:02:44;;;;;;;3.00;2.75;;;;;;;;;;4978938;28;20035;-22
2022/05/08 12:05:36;;;;;;;2.92;2.72;;;;;;;;;;4978788;28;20047;-27
2022/05/08 12:08:02;;;;;;;3.38;3.08;;;;;;;;;;4975672;28;20117;-22
2022/05/08 12:10:46;;;;;;;2.83;2.53;;;;;;;;;;4978814;28;20033;-22
2022/05/08 12:13:13;;;;;;;3.45;3.08;;;;;;;;;;4978878;28;20085;-22
2022/05/08 12:15:39;;;;;;;4.80;3.15;;;;;;;;;;4978958;28;20524;-22
2022/05/08 12:18:05;;;;;;;4.07;2.67;;;;;;;;;;4961645;28;20073;-21
2022/05/08 12:20:35;;;;;;;2.95;2.70;;;;;;;;;;4978620;28;20508;-24
2022/05/08 12:23:06;;;;;;;2.97;2.78;;;;;;;;;;4978839;28;20027;-22
2022/05/08 12:25:33;;;;;;;2.92;2.72;;;;;;;;;;4978550;28;20023;-22
2022/05/08 12:27:59;;;;;;;2.90;2.70;;;;;;;;;;4978543;28;20031;-22
2022/05/08 12:30:25;;;;;;;2.95;2.75;;;;;;;;;;4978519;28;20093;-22
2022/05/08 12:32:51;;;;;;;3.05;2.85;;;;;;;;;;4961361;28;20031;-21
2022/05/08 12:35:19;;;;;;;2.80;2.60;;;;;;;;;;4978676;28;20050;-21
2022/05/08 12:37:48;;;;;;;3.35;3.05;;;;;;;;;;4978629;28;20027;-23
2022/05/08 12:40:14;;;;;;;2.83;2.50;;;;;;;;;;4978848;28;20022;-21
2022/05/08 12:42:40;;;;;;;3.28;2.97;;;;;;;;;;4978745;28;20042;-23
2022/05/08 12:45:06;;;;;;;2.80;2.60;;;;;;;;;;4978256;28;20083;-22
2022/05/08 12:47:33;;;;;;;3.38;3.10;;;;;;;;;;4978200;28;20037;-23
2022/05/08 12:49:59;;;;;;;3.22;3.00;;;;;;;;;;4978165;28;20367;-22
2022/05/08 12:52:25;;;;;;;3.20;2.90;;;;;;;;;;4977977;28;20543;-21
2022/05/08 12:54:51;;;;;;;3.10;2.90;;;;;;;;;;4978075;28;20338;-21
2022/05/08 13:00:03;;;;;;;3.35;2.78;;;;;;;;;;4978525;28;20062;-21
2022/05/08 13:02:30;;;;;;;3.22;3.03;;;;;;;;;;4977861;28;20039;-23
2022/05/08 13:04:56;;;;;;;2.90;2.70;;;;;;;;;;4976751;28;20043;-22
2022/05/08 13:07:22;;;;;;;3.20;3.00;;;;;;;;;;4978377;28;20027;-21
2022/05/08 13:09:49;;;;;;;2.90;2.70;;;;;;;;;;4978081;28;20041;-22
2022/05/08 13:12:15;;;;;;;2.80;2.60;;;;;;;;;;4977637;28;20109;-21
2022/05/08 13:14:42;;;;;;;2.58;2.38;;;;;;;;;;4977700;28;20030;-23
2022/05/08 13:17:09;;;;;;;3.30;3.10;;;;;;;;;;4978201;28;20034;-22
2022/05/08 13:19:35;;;;;;;3.05;2.85;;;;;;;;;;4977619;28;20030;-23
2022/05/08 13:22:02;;;;;;;2.90;2.70;;;;;;;;;;4977448;28;20456;-21
2022/05/08 13:24:29;;;;;;;3.47;3.28;;;;;;;;;;4977775;28;20342;-22
2022/05/08 13:26:57;;;;;;;2.95;2.75;;;;;;;;;;4977781;28;20037;-21
2022/05/08 13:29:24;;;;;;;2.65;2.50;;;;;;;;;;4960411;28;20088;-21
2022/05/08 13:31:51;;;;;;;3.40;3.17;;;;;;;;;;4978037;28;20026;-22
2022/05/08 13:34:18;;;;;;;3.35;3.15;;;;;;;;;;4960645;28;20038;-21
2022/05/08 13:36:47;;;;;;;2.95;2.75;;;;;;;;;;4977312;28;20360;-22
2022/05/08 13:39:14;;;;;;;3.20;3.00;;;;;;;;;;4977515;28;20101;-21
2022/05/08 13:41:41;;;;;;;3.40;3.10;;;;;;;;;;4977210;28;20034;-21
2022/05/08 13:44:07;;;;;;;2.97;2.75;;;;;;;;;;4960045;28;20071;-21
2022/05/08 13:46:34;;;;;;;3.58;3.28;;;;;;;;;;4977343;28;20031;-21
2022/05/08 13:49:00;;;;;;;3.30;3.10;;;;;;;;;;4976978;28;20066;-22
2022/05/08 13:51:27;;;;;;;2.67;2.58;;;;;;;;;;4977201;28;20089;-21
2022/05/08 13:53:54;;;;;;;3.70;3.40;;;;;;;;;;4976879;28;20019;-21
2022/05/08 13:56:20;;;;;;;3.28;3.08;;;;;;;;;;4960650;28;20058;-21
2022/05/08 13:58:46;;;;;;;3.60;3.33;;;;;;;;;;4977092;28;20508;-23
2022/05/08 14:01:13;;;;;;;3.13;2.92;;;;;;;;;;4976826;28;20063;-25
2022/05/08 14:03:40;;;;;;;4.10;3.30;;;;;;;;;;4976439;28;20065;-21
2022/05/08 14:06:09;;;;;;;3.05;2.85;;;;;;;;;;4976747;28;20105;-21
2022/05/08 14:08:35;;;;;;;3.05;2.85;;;;;;;;;;4976638;28;20065;-21
2022/05/08 14:11:01;;;;;;;3.40;3.20;;;;;;;;;;4976612;28;20109;-22
2022/05/08 14:13:27;;;;;;;3.15;2.95;;;;;;;;;;4959562;28;20118;-21
2022/05/08 14:15:53;;;;;;;3.13;2.88;;;;;;;;;;4976372;28;20437;-23
2022/05/08 14:18:20;;;;;;;3.38;3.10;;;;;;;;;;4976534;28;20030;-23
2022/05/08 14:20:47;;;;;;;3.63;3.35;;;;;;;;;;4976508;28;20107;-22
2022/05/08 14:23:13;;;;;;;3.50;3.30;;;;;;;;;;4959344;28;20117;-23
2022/05/08 14:25:39;;;;;;;5.57;3.63;;;;;;;;;;4976644;28;20042;-22
2022/05/08 14:28:05;;;;;;;3.10;2.90;;;;;;;;;;4976398;28;20027;-21
2022/05/08 14:30:31;;;;;;;3.13;2.92;;;;;;;;;;4976547;28;20472;-21
2022/05/08 14:38:30;;;;;;;3.60;3.30;;;;;;;;;;4976278;28;20097;-21
2022/05/08 14:40:57;;;;;;;4.38;3.53;;;;;;;;;;4976185;28;20027;-21
2022/05/08 14:43:24;;;;;;;3.75;2.80;;;;;;;;;;4976255;28;20089;-21
2022/05/08 14:45:50;;;;;;;3.30;3.10;;;;;;;;;;4976069;28;20030;-22
2022/05/08 14:48:17;;;;;;;3.78;3.42;;;;;;;;;;4976113;28;20531;-22
2022/05/08 14:50:44;;;;;;;3.75;3.30;;;;;;;;;;4976987;28;20116;-23
2022/05/08 14:53:13;;;;;;;3.67;3.25;;;;;;;;;;4976473;28;20037;-22
2022/05/08 14:55:40;;;;;;;3.20;3.00;;;;;;;;;;4975981;28;20483;-22
2022/05/08 14:58:07;;;;;;;4.07;3.78;;;;;;;;;;4975963;28;20054;-21
2022/05/08 15:00:33;;;;;;;3.20;3.00;;;;;;;;;;4958914;28;20082;-22
2022/05/08 15:03:01;;;;;;;3.55;3.35;;;;;;;;;;4975920;28;20482;-20
2022/05/08 15:05:27;;;;;;;3.58;3.38;;;;;;;;;;4976690;28;20046;-22
2022/05/08 15:07:53;;;;;;;3.05;2.85;;;;;;;;;;4976094;28;20408;-21
2022/05/08 15:10:20;;;;;;;3.28;3.03;;;;;;;;;;4976091;28;20109;-21
2022/05/08 15:12:46;;;;;;;3.67;3.47;;;;;;;;;;4975655;28;20049;-22
2022/05/08 15:15:12;;;;;;;3.10;2.90;;;;;;;;;;4976299;28;20097;-21
2022/05/08 15:18:47;;;;;;;3.95;3.65;;;;;;;;;;4976053;28;20444;-21
2022/05/08 15:20:25;;;;;;;3.47;3.25;;;;;;;;;;4975836;28;20420;-22
2022/05/08 15:22:51;;;;;;;3.42;3.22;;;;;;;;;;4975746;28;20050;-21